Nyiregyhaza, Hungary
Current Conditions -  °F | °C
As of 5:45 PM on Wednesday 26 Nov 2014 (Local Time) from LHDC Reporting Station
Moderate Fog Moderate Fog  
Wind Chill: 32°   Ceiling: 300
Heat Index: 32°   Visibility: 0.12mi
Dew Point: 30°   Wind: 1mph
Humidity: 93%   Direction: 260°W
Pressure: 30.27"   Gusts: NA
Location:  47.96°N, 21.72°E
Report Text: LHDC 261545Z 26001KT 0200 FZFG VV003 M00/M01 Q1025 NOSIG
Loading
Personal Weather Stations






























Interactive Weather Map New forecast layout! Learn more

10-Day Weather Forecast

Advertisements
Track Severe Weather on mobile